createdAt,value
2018-04-14T00:00:58.239Z,61.30
2018-04-14T00:03:25.902Z,61.40
2018-04-14T00:05:53.606Z,60.80
2018-04-14T00:08:21.286Z,61.00
2018-04-14T00:10:48.983Z,61.50
2018-04-14T00:13:17.465Z,61.30
2018-04-14T00:15:45.896Z,63.10
2018-04-14T00:18:13.619Z,62.20
2018-04-14T00:20:41.290Z,61.60
2018-04-14T00:23:08.991Z,60.80
2018-04-14T00:25:37.416Z,60.70
2018-04-14T00:28:05.115Z,60.70
2018-04-14T00:30:32.812Z,61.20
2018-04-14T00:33:00.511Z,60.50
2018-04-14T00:35:28.955Z,61.00
2018-04-14T00:37:56.681Z,60.90
2018-04-14T00:40:24.348Z,60.70
2018-04-14T00:42:52.088Z,60.60
2018-04-14T00:45:19.762Z,60.70
2018-04-14T00:47:47.440Z,60.60
2018-04-14T00:50:15.090Z,60.60
2018-04-14T00:52:42.741Z,61.10
2018-04-14T00:55:10.473Z,60.80
2018-04-14T00:57:38.154Z,60.80
2018-04-14T01:00:05.813Z,60.70
2018-04-14T01:02:33.477Z,59.90
2018-04-14T01:05:01.168Z,59.90
2018-04-14T01:07:28.879Z,60.00
2018-04-14T01:09:57.332Z,60.80
2018-04-14T01:12:24.980Z,60.60
2018-04-14T01:14:52.657Z,62.40
2018-04-14T01:17:20.322Z,61.30
2018-04-14T01:19:48.054Z,60.40
2018-04-14T01:22:15.775Z,60.00
2018-04-14T01:24:43.470Z,60.60
2018-04-14T01:27:11.162Z,61.00
2018-04-14T01:29:38.872Z,60.70
2018-04-14T01:32:07.316Z,60.60
2018-04-14T01:34:35.000Z,60.50
2018-04-14T01:37:03.444Z,62.30
2018-04-14T01:39:31.586Z,62.10
2018-04-14T01:41:59.252Z,61.70
2018-04-14T01:44:26.929Z,61.10
2018-04-14T01:46:54.573Z,60.60
2018-04-14T01:49:22.266Z,60.60
2018-04-14T01:51:49.909Z,60.50
2018-04-14T01:54:17.631Z,60.50
2018-04-14T01:56:45.279Z,60.50
2018-04-14T01:59:13.798Z,61.60
2018-04-14T02:01:41.506Z,61.40
2018-04-14T02:04:09.152Z,61.10
2018-04-14T02:06:36.831Z,61.30
2018-04-14T02:09:05.304Z,61.40
2018-04-14T02:11:33.021Z,61.40
2018-04-14T02:14:01.446Z,62.80
2018-04-14T02:16:29.132Z,62.70
2018-04-14T02:18:56.777Z,62.10
2018-04-14T02:21:24.480Z,61.20
2018-04-14T02:23:52.119Z,61.00
2018-04-14T02:26:19.763Z,61.10
2018-04-14T02:28:47.423Z,61.10
2018-04-14T02:31:15.095Z,61.80
2018-04-14T02:33:42.882Z,60.80
2018-04-14T02:36:10.630Z,61.00
2018-04-14T02:38:38.273Z,61.20
2018-04-14T02:41:06.712Z,61.20
2018-04-14T02:43:34.397Z,61.10
2018-04-14T02:46:02.068Z,61.30
2018-04-14T02:48:29.729Z,61.30
2018-04-14T02:50:57.425Z,61.10
2018-04-14T02:53:25.124Z,61.10
2018-04-14T02:55:52.770Z,61.40
2018-04-14T02:58:20.493Z,61.70
2018-04-14T03:00:48.948Z,61.90
2018-04-14T03:03:16.621Z,61.90
2018-04-14T03:05:44.299Z,61.60
2018-04-14T03:08:11.991Z,61.80
2018-04-14T03:10:39.648Z,62.70
2018-04-14T03:13:07.335Z,63.00
2018-04-14T03:15:35.032Z,62.60
2018-04-14T03:18:03.498Z,62.60
2018-04-14T03:20:31.178Z,62.60
2018-04-14T03:22:58.858Z,63.80
2018-04-14T03:25:26.562Z,64.30
2018-04-14T03:27:54.247Z,63.50
2018-04-14T03:30:21.891Z,62.90
2018-04-14T03:32:49.650Z,62.60
2018-04-14T03:35:18.095Z,62.20
2018-04-14T03:37:45.769Z,62.20
2018-04-14T03:40:13.482Z,62.00
2018-04-14T03:42:41.136Z,61.80
2018-04-14T03:45:08.831Z,62.10
2018-04-14T03:47:36.485Z,62.20
2018-04-14T03:50:04.194Z,62.30
2018-04-14T03:52:31.861Z,62.40
2018-04-14T03:54:59.547Z,62.30
2018-04-14T03:57:27.202Z,62.50
2018-04-14T03:59:54.909Z,62.70
2018-04-14T04:02:23.359Z,61.80
2018-04-14T04:04:51.912Z,61.50
2018-04-14T04:07:19.604Z,61.40
2018-04-14T04:09:47.351Z,61.50
2018-04-14T04:12:15.766Z,61.10
2018-04-14T04:14:43.438Z,61.10
2018-04-14T04:17:11.140Z,61.20
2018-04-14T04:19:51.513Z,61.60
2018-04-14T04:22:31.230Z,61.30
2018-04-14T04:25:13.488Z,61.10
2018-04-14T04:27:41.159Z,61.20
2018-04-14T04:30:08.887Z,61.50
2018-04-14T04:32:36.549Z,61.50
2018-04-14T04:35:04.239Z,62.00
2018-04-14T04:37:32.696Z,61.70
2018-04-14T04:40:00.389Z,61.50
2018-04-14T04:42:28.067Z,62.20
2018-04-14T04:44:56.071Z,61.30
2018-04-14T04:47:24.584Z,63.40
2018-04-14T04:49:52.254Z,63.40
2018-04-14T04:52:19.919Z,62.70
2018-04-14T04:54:48.350Z,62.30
2018-04-14T04:57:16.150Z,62.20
2018-04-14T04:59:43.831Z,61.70
2018-04-14T05:02:11.628Z,61.50
2018-04-14T05:04:39.300Z,61.20
2018-04-14T05:07:07.050Z,60.90
2018-04-14T05:09:34.720Z,61.30
2018-04-14T05:12:02.379Z,61.40
2018-04-14T05:14:30.113Z,61.00
2018-04-14T05:16:58.655Z,65.20
2018-04-14T05:19:26.370Z,65.20
2018-04-14T05:21:54.050Z,64.00
2018-04-14T05:24:21.751Z,63.00
2018-04-14T05:26:50.185Z,62.30
2018-04-14T05:29:17.932Z,62.30
2018-04-14T05:31:45.609Z,61.90
2018-04-14T05:34:13.377Z,61.50
2018-04-14T05:36:41.022Z,61.30
2018-04-14T05:39:08.714Z,60.50
2018-04-14T05:41:37.158Z,62.10
2018-04-14T05:44:04.882Z,61.90
2018-04-14T05:46:33.332Z,60.20
2018-04-14T05:49:01.151Z,61.00
2018-04-14T05:51:28.842Z,59.80
2018-04-14T05:53:56.539Z,60.20
2018-04-14T05:56:24.179Z,60.10
2018-04-14T05:58:52.627Z,61.80
2018-04-14T06:01:20.316Z,61.70
2018-04-14T06:03:48.085Z,61.00
2018-04-14T06:06:15.915Z,60.10
2018-04-14T06:08:44.373Z,60.00
2018-04-14T06:11:12.073Z,60.70
2018-04-14T06:13:40.524Z,58.30
2018-04-14T06:16:08.436Z,58.30
2018-04-14T06:18:36.867Z,60.30
2018-04-14T06:21:05.362Z,60.30
2018-04-14T06:23:33.135Z,60.20
2018-04-14T06:26:00.881Z,59.80
2018-04-14T06:28:29.372Z,59.20
2018-04-14T06:30:57.093Z,59.10
2018-04-14T06:33:24.761Z,58.90
2018-04-14T06:35:52.442Z,58.90
2018-04-14T06:38:20.105Z,58.80
2018-04-14T06:40:47.805Z,58.30
2018-04-14T06:43:15.456Z,59.20
2018-04-14T06:45:43.136Z,59.00
2018-04-14T06:48:10.834Z,58.60
2018-04-14T06:50:38.498Z,59.80
2018-04-14T06:53:06.236Z,59.20
2018-04-14T06:55:33.990Z,58.50
2018-04-14T06:58:02.496Z,59.70
2018-04-14T07:00:30.929Z,59.40
2018-04-14T07:02:58.618Z,59.40
2018-04-14T07:05:26.286Z,58.80
2018-04-14T07:07:53.945Z,58.80
2018-04-14T07:10:21.601Z,59.60
2018-04-14T07:12:49.310Z,61.10
2018-04-14T07:15:16.944Z,62.10
2018-04-14T07:17:45.391Z,58.80
2018-04-14T07:20:13.030Z,58.80
2018-04-14T07:22:40.727Z,57.70
2018-04-14T07:25:08.440Z,59.90
2018-04-14T07:27:36.899Z,59.60
2018-04-14T07:30:04.602Z,59.40
2018-04-14T07:32:32.265Z,59.50
2018-04-14T07:35:00.034Z,59.00
2018-04-14T07:37:27.713Z,59.60
2018-04-14T07:39:55.442Z,58.50
2018-04-14T07:42:23.153Z,56.40
2018-04-14T07:44:50.808Z,60.00
2018-04-14T07:47:18.739Z,59.00
2018-04-14T07:49:46.427Z,58.50
2018-04-14T07:52:14.900Z,58.80
2018-04-14T07:54:42.669Z,58.70
2018-04-14T07:57:10.300Z,61.40
2018-04-14T07:59:38.016Z,59.70
2018-04-14T08:02:05.715Z,58.10
2018-04-14T08:04:33.415Z,59.00
2018-04-14T08:07:01.843Z,65.30
2018-04-14T08:09:29.464Z,65.20
2018-04-14T08:11:57.147Z,58.80
2018-04-14T08:14:24.780Z,61.50
2018-04-14T08:16:52.509Z,59.70
2018-04-14T08:19:20.909Z,56.90
2018-04-14T08:21:48.583Z,56.90
2018-04-14T08:24:17.707Z,57.20
2018-04-14T08:26:45.445Z,57.30
2018-04-14T08:29:13.889Z,56.90
2018-04-14T08:31:41.585Z,56.70
2018-04-14T08:34:09.246Z,52.90
2018-04-14T08:36:36.914Z,54.20
2018-04-14T08:39:04.572Z,55.50
2018-04-14T08:41:32.355Z,55.90
2018-04-14T08:44:00.065Z,58.90
2018-04-14T08:46:27.716Z,59.20
2018-04-14T08:48:55.393Z,57.00
2018-04-14T08:51:23.104Z,55.30
2018-04-14T08:53:50.819Z,55.60
2018-04-14T08:56:18.565Z,55.10
2018-04-14T08:58:46.263Z,56.20
2018-04-14T09:01:13.885Z,55.30
2018-04-14T09:03:41.678Z,55.60
2018-04-14T09:06:09.337Z,55.50
2018-04-14T09:08:37.052Z,55.60
2018-04-14T09:11:05.446Z,55.80
2018-04-14T09:13:34.890Z,57.10
2018-04-14T09:16:02.549Z,57.10
2018-04-14T09:18:30.241Z,57.90
2018-04-14T09:20:57.902Z,57.20
2018-04-14T09:23:25.636Z,56.30
2018-04-14T09:25:53.316Z,56.60
2018-04-14T09:28:21.068Z,54.70
2018-04-14T09:30:48.724Z,55.90
2018-04-14T09:33:16.490Z,56.60
2018-04-14T09:35:44.143Z,57.10
2018-04-14T09:38:12.589Z,55.40
2018-04-14T09:40:40.303Z,55.30
2018-04-14T09:43:07.999Z,57.40
2018-04-14T09:45:35.700Z,56.70
2018-04-14T09:48:03.332Z,55.20
2018-04-14T09:50:31.761Z,56.00
2018-04-14T09:52:59.419Z,56.40
2018-04-14T09:55:27.151Z,53.90
2018-04-14T09:57:55.953Z,55.30
2018-04-14T10:00:27.835Z,53.80
2018-04-14T10:03:00.583Z,56.00
2018-04-14T10:05:28.309Z,54.50
2018-04-14T10:07:55.985Z,53.20
2018-04-14T10:10:23.758Z,52.10
2018-04-14T10:12:51.456Z,53.90
2018-04-14T10:15:19.153Z,55.10
2018-04-14T10:17:46.898Z,55.40
2018-04-14T10:20:14.573Z,54.00
2018-04-14T10:22:43.017Z,52.40
2018-04-14T10:25:10.816Z,52.40
2018-04-14T10:27:39.509Z,52.70
2018-04-14T10:30:07.450Z,52.60
2018-04-14T10:32:35.140Z,52.10
2018-04-14T10:35:02.818Z,50.60
2018-04-14T10:37:30.480Z,50.50
2018-04-14T10:39:58.164Z,50.40
2018-04-14T10:42:26.016Z,49.80
2018-04-14T10:44:53.916Z,50.30
2018-04-14T10:47:21.602Z,51.40
2018-04-14T10:49:49.420Z,51.80
2018-04-14T10:52:17.238Z,51.60
2018-04-14T10:54:44.911Z,50.20
2018-04-14T10:57:12.665Z,54.50
2018-04-14T10:59:41.082Z,50.90
2018-04-14T11:02:08.806Z,51.10
2018-04-14T11:04:36.497Z,55.30
2018-04-14T11:07:04.182Z,54.90
2018-04-14T11:09:31.859Z,55.00
2018-04-14T11:12:00.283Z,52.20
2018-04-14T11:14:27.982Z,52.10
2018-04-14T11:16:55.650Z,52.30
2018-04-14T11:19:23.545Z,52.30
2018-04-14T11:21:51.334Z,52.90
2018-04-14T11:24:19.082Z,51.70
2018-04-14T11:26:46.740Z,51.00
2018-04-14T11:29:14.401Z,51.90
2018-04-14T11:31:42.121Z,51.50
2018-04-14T11:34:09.883Z,52.40
2018-04-14T11:36:37.551Z,51.40
2018-04-14T11:39:05.363Z,49.80
2018-04-14T11:41:33.192Z,53.00
2018-04-14T11:44:00.825Z,51.10
2018-04-14T11:46:28.515Z,52.90
2018-04-14T11:48:56.949Z,52.10
2018-04-14T11:51:24.693Z,51.70
2018-04-14T11:53:53.106Z,51.50
2018-04-14T11:56:20.872Z,51.50
2018-04-14T11:58:48.570Z,52.20
2018-04-14T12:01:16.246Z,53.40
2018-04-14T12:03:44.415Z,51.10
2018-04-14T12:06:12.134Z,54.30
2018-04-14T12:08:39.817Z,53.40
2018-04-14T12:11:07.545Z,53.20
2018-04-14T12:13:35.245Z,49.10
2018-04-14T12:16:02.994Z,52.30
2018-04-14T12:18:31.401Z,53.20
2018-04-14T12:20:59.071Z,53.10
2018-04-14T12:23:26.730Z,52.40
2018-04-14T12:25:54.463Z,51.90
2018-04-14T12:28:22.151Z,52.10
2018-04-14T12:30:50.608Z,51.40
2018-04-14T12:33:18.311Z,51.50
2018-04-14T12:35:45.969Z,52.10
2018-04-14T12:38:13.941Z,50.70
2018-04-14T12:40:41.651Z,51.80
2018-04-14T12:45:52.039Z,49.70
2018-04-14T12:48:19.666Z,50.90
2018-04-14T12:50:47.355Z,51.00
2018-04-14T12:53:15.052Z,51.60
2018-04-14T12:55:42.861Z,49.50
2018-04-14T12:58:10.555Z,50.80
2018-04-14T13:00:38.254Z,50.90
2018-04-14T13:03:05.985Z,51.60
2018-04-14T13:05:33.662Z,53.10
2018-04-14T13:08:02.125Z,51.60
2018-04-14T13:10:29.824Z,51.60
2018-04-14T13:12:57.503Z,51.20
2018-04-14T13:15:25.163Z,50.20
2018-04-14T13:17:52.843Z,51.00
2018-04-14T13:20:20.463Z,50.10
2018-04-14T13:22:48.099Z,50.10
2018-04-14T13:25:15.769Z,50.00
2018-04-14T13:27:43.474Z,50.80
2018-04-14T13:30:11.132Z,48.70
2018-04-14T13:32:39.528Z,50.30
2018-04-14T13:35:07.208Z,50.10
2018-04-14T13:37:34.922Z,50.10
2018-04-14T13:40:02.640Z,50.70
2018-04-14T13:42:30.292Z,50.40
2018-04-14T13:44:57.956Z,50.00
2018-04-14T13:47:25.964Z,48.20
2018-04-14T13:49:53.627Z,49.80
2018-04-14T13:52:21.238Z,50.10
2018-04-14T13:54:49.678Z,50.60
2018-04-14T13:57:17.325Z,50.50
2018-04-14T13:59:45.051Z,50.10
2018-04-14T14:02:12.696Z,47.80
2018-04-14T14:04:40.365Z,51.20
2018-04-14T14:07:07.997Z,46.30
2018-04-14T14:09:36.430Z,51.70
2018-04-14T14:12:04.124Z,51.70
2018-04-14T14:14:31.840Z,47.10
2018-04-14T14:16:59.560Z,50.70
2018-04-14T14:19:27.211Z,48.60
2018-04-14T14:21:55.043Z,49.20
2018-04-14T14:24:22.728Z,50.60
2018-04-14T14:26:50.409Z,47.30
2018-04-14T14:29:18.829Z,51.00
2018-04-14T14:31:46.528Z,51.00
2018-04-14T14:34:14.170Z,50.30
2018-04-14T14:36:41.841Z,50.30
2018-04-14T14:39:10.226Z,50.10
2018-04-14T14:41:38.670Z,48.40
2018-04-14T14:44:06.292Z,48.40
2018-04-14T14:46:33.916Z,46.50
2018-04-14T14:49:01.580Z,48.30
2018-04-14T14:51:29.219Z,48.50
2018-04-14T14:53:57.731Z,48.80
2018-04-14T14:56:25.407Z,48.80
2018-04-14T14:58:53.064Z,48.60
2018-04-14T15:01:20.736Z,50.60
2018-04-14T15:03:48.461Z,50.50
2018-04-14T15:06:16.126Z,51.30
2018-04-14T15:08:43.831Z,51.00
2018-04-14T15:11:11.463Z,51.90
2018-04-14T15:13:39.153Z,47.90
2018-04-14T15:16:06.821Z,49.60
2018-04-14T15:18:34.507Z,52.60
2018-04-14T15:21:02.135Z,46.80
2018-04-14T15:23:29.793Z,50.10
2018-04-14T15:25:58.239Z,48.80
2018-04-14T15:28:25.913Z,48.90
2018-04-14T15:30:53.589Z,49.40
2018-04-14T15:33:21.324Z,49.70
2018-04-14T15:35:49.761Z,47.30
2018-04-14T15:38:17.479Z,47.30
2018-04-14T15:40:45.160Z,45.90
2018-04-14T15:43:13.585Z,47.70
2018-04-14T15:45:41.308Z,47.30
2018-04-14T15:48:08.950Z,50.70
2018-04-14T15:50:36.625Z,45.40
2018-04-14T15:53:04.269Z,47.20
2018-04-14T15:55:32.703Z,51.90
2018-04-14T15:58:00.381Z,52.00
2018-04-14T16:00:28.053Z,51.20
2018-04-14T16:02:55.697Z,50.70
2018-04-14T16:05:23.413Z,46.30
2018-04-14T16:07:51.076Z,49.60
2018-04-14T16:10:18.731Z,45.20
2018-04-14T16:12:46.445Z,52.10
2018-04-14T16:15:14.131Z,50.00
2018-04-14T16:17:41.804Z,50.10
2018-04-14T16:20:09.441Z,48.70
2018-04-14T16:22:37.090Z,47.90
2018-04-14T16:25:04.767Z,46.80
2018-04-14T16:27:32.424Z,46.40
2018-04-14T16:30:00.852Z,47.70
2018-04-14T16:32:28.507Z,47.60
2018-04-14T16:34:56.130Z,47.20
2018-04-14T16:37:23.813Z,46.30
2018-04-14T16:39:51.460Z,43.70
2018-04-14T16:42:19.122Z,47.30
2018-04-14T16:44:46.754Z,49.60
2018-04-14T16:47:15.194Z,45.40
2018-04-14T16:49:42.798Z,45.20
2018-04-14T16:52:10.459Z,46.90
2018-04-14T16:54:38.116Z,46.80
2018-04-14T16:57:05.776Z,46.70
2018-04-14T16:59:33.513Z,46.80
2018-04-14T17:02:01.234Z,44.90
2018-04-14T17:04:29.184Z,41.70
2018-04-14T17:06:57.665Z,49.30
2018-04-14T17:09:26.127Z,43.00
2018-04-14T17:11:53.885Z,42.90
2018-04-14T17:14:21.541Z,50.60
2018-04-14T17:16:49.199Z,47.90
2018-04-14T17:19:17.625Z,46.60
2018-04-14T17:21:45.354Z,46.70
2018-04-14T17:24:13.737Z,50.30
2018-04-14T17:26:42.291Z,47.90
2018-04-14T17:29:09.959Z,47.60
2018-04-14T17:31:37.579Z,48.30
2018-04-14T17:34:06.049Z,49.60
2018-04-14T17:36:33.731Z,50.00
2018-04-14T17:39:01.394Z,48.70
2018-04-14T17:41:29.067Z,48.60
2018-04-14T17:43:56.751Z,48.70
2018-04-14T17:46:24.459Z,49.20
2018-04-14T17:48:52.129Z,48.90
2018-04-14T17:51:19.782Z,48.50
2018-04-14T17:53:47.477Z,45.60
2018-04-14T17:56:15.117Z,47.50
2018-04-14T17:58:43.538Z,52.10
2018-04-14T18:01:11.235Z,52.00
2018-04-14T18:03:39.742Z,50.70
2018-04-14T18:06:08.184Z,49.00
2018-04-14T18:08:35.901Z,49.00
2018-04-14T18:11:04.338Z,50.50
2018-04-14T18:13:32.020Z,50.10
2018-04-14T18:15:59.685Z,49.70
2018-04-14T18:18:27.362Z,49.50
2018-04-14T18:20:55.061Z,49.00
2018-04-14T18:23:22.749Z,49.00
2018-04-14T18:25:50.420Z,47.40
2018-04-14T18:28:18.947Z,50.60
2018-04-14T18:30:46.749Z,50.50
2018-04-14T18:33:14.425Z,50.40
2018-04-14T18:35:42.123Z,52.80
2018-04-14T18:38:09.776Z,49.30
2018-04-14T18:40:37.531Z,52.40
2018-04-14T18:43:05.245Z,49.20
2018-04-14T18:45:32.985Z,53.10
2018-04-14T18:48:00.638Z,49.90
2018-04-14T18:50:29.103Z,52.00
2018-04-14T18:52:56.881Z,52.00
2018-04-14T18:55:24.619Z,50.50
2018-04-14T18:57:52.466Z,51.70
2018-04-14T19:00:20.930Z,52.00
2018-04-14T19:02:49.414Z,54.00
2018-04-14T19:05:17.412Z,53.80
2018-04-14T19:07:45.109Z,55.20
2018-04-14T19:10:12.799Z,53.30
2018-04-14T19:12:40.484Z,51.40
2018-04-14T19:15:08.133Z,53.00
2018-04-14T19:17:36.617Z,53.50
2018-04-14T19:20:04.307Z,53.40
2018-04-14T19:22:32.820Z,52.40
2018-04-14T19:25:00.472Z,52.20
2018-04-14T19:27:30.471Z,51.20
2018-04-14T19:29:58.976Z,52.20
2018-04-14T19:32:26.758Z,52.30
2018-04-14T19:34:54.372Z,53.80
2018-04-14T19:37:22.081Z,55.30
2018-04-14T19:39:49.793Z,53.80
2018-04-14T19:42:17.553Z,53.50
2018-04-14T19:44:45.189Z,56.30
2018-04-14T19:47:12.893Z,52.40
2018-04-14T19:49:40.592Z,50.70
2018-04-14T19:52:08.295Z,52.40
2018-04-14T19:54:36.767Z,55.80
2018-04-14T19:57:05.229Z,53.60
2018-04-14T19:59:32.954Z,53.60
2018-04-14T20:02:00.679Z,51.60
2018-04-14T20:04:28.301Z,53.60
2018-04-14T20:06:56.725Z,54.00
2018-04-14T20:09:24.400Z,53.90
2018-04-14T20:11:52.073Z,55.00
2018-04-14T20:14:19.758Z,51.80
2018-04-14T20:16:47.411Z,55.50
2018-04-14T20:19:15.072Z,55.50
2018-04-14T20:21:42.718Z,56.70
2018-04-14T20:24:10.817Z,53.10
2018-04-14T20:26:38.583Z,56.20
2018-04-14T20:29:06.255Z,56.50
2018-04-14T20:31:33.903Z,56.30
2018-04-14T20:34:01.618Z,55.70
2018-04-14T20:36:30.026Z,56.40
2018-04-14T20:39:00.733Z,57.50
2018-04-14T20:41:28.405Z,57.60
2018-04-14T20:43:56.109Z,59.20
2018-04-14T20:52:02.439Z,57.00
2018-04-14T20:54:35.045Z,54.60
2018-04-14T21:00:01.468Z,55.20
2018-04-14T21:02:29.264Z,54.90
2018-04-14T21:04:56.934Z,54.30
2018-04-14T21:07:24.573Z,55.80
2018-04-14T21:09:52.389Z,56.20
2018-04-14T21:12:20.232Z,57.20
2018-04-14T21:14:47.928Z,58.30
2018-04-14T21:17:15.927Z,57.20
2018-04-14T21:19:43.632Z,56.60
2018-04-14T21:22:12.208Z,58.00
2018-04-14T21:24:40.015Z,58.00
2018-04-14T21:27:08.701Z,60.90
2018-04-14T21:29:39.081Z,60.80
2018-04-14T21:32:07.174Z,57.80
2018-04-14T21:34:35.221Z,59.50
2018-04-14T21:37:03.010Z,61.30
2018-04-14T21:39:30.675Z,58.90
2018-04-14T21:41:58.378Z,61.70
2018-04-14T21:44:26.058Z,59.10
2018-04-14T21:46:53.818Z,61.90
2018-04-14T21:49:22.045Z,60.00
2018-04-14T21:51:49.783Z,59.80
2018-04-14T21:54:17.881Z,59.40
2018-04-14T21:56:45.591Z,58.20
2018-04-14T21:59:13.277Z,58.70
2018-04-14T22:01:40.977Z,61.00
2018-04-14T22:04:08.611Z,61.70
2018-04-14T22:06:36.308Z,58.20
2018-04-14T22:09:04.048Z,58.80
2018-04-14T22:11:31.829Z,58.80
2018-04-14T22:13:59.760Z,60.20
2018-04-14T22:16:27.465Z,58.30
2018-04-14T22:18:55.254Z,59.10
2018-04-14T22:21:22.982Z,58.70
2018-04-14T22:23:50.861Z,59.00
2018-04-14T22:26:18.974Z,60.30
2018-04-14T22:28:46.766Z,62.40
2018-04-14T22:31:14.457Z,61.10
2018-04-14T22:33:42.187Z,61.40
2018-04-14T22:36:10.709Z,60.00
2018-04-14T22:38:38.415Z,60.00
2018-04-14T22:41:06.174Z,59.60
2018-04-14T22:46:11.695Z,63.00
2018-04-14T22:48:43.207Z,59.50
2018-04-14T22:51:15.009Z,59.30
2018-04-14T22:53:43.040Z,59.30
2018-04-14T22:56:11.635Z,59.70
2018-04-14T22:58:39.638Z,62.40
2018-04-14T23:01:07.535Z,60.30
2018-04-14T23:03:35.740Z,57.30
2018-04-14T23:06:09.557Z,57.60
2018-04-14T23:08:40.017Z,58.00
2018-04-14T23:11:09.271Z,56.70
2018-04-14T23:13:38.713Z,55.00
2018-04-14T23:16:06.943Z,54.70
2018-04-14T23:18:38.653Z,55.40
2018-04-14T23:21:07.520Z,55.10
2018-04-14T23:23:35.694Z,57.00
2018-04-14T23:26:05.422Z,56.60
2018-04-14T23:28:33.492Z,54.50
2018-04-14T23:33:38.431Z,55.90
2018-04-14T23:36:08.437Z,56.30
2018-04-14T23:38:36.176Z,58.10
2018-04-14T23:41:06.759Z,59.40
2018-04-14T23:43:34.525Z,59.80
2018-04-14T23:48:47.809Z,60.30
2018-04-14T23:51:15.874Z,64.30
2018-04-14T23:53:44.723Z,59.50
2018-04-14T23:56:14.444Z,57.10
2018-04-14T23:58:46.561Z,57.00
